Time;durP1;ratioP1;P1;durP2;ratioP2;P2;SDS_P1;SDS_P2;PMS_P1;PMS_P2;Temp;Humidity;BMP_temperature;BMP_pressure;BME280_temperature;BME280_humidity;BME280_pressure;Samples;Min_cycle;Max_cycle;Signal;HPM_P1;HPM_P2
2023/04/04 00:00:33;;;;;;;6.40;2.05;;;2.70;91.70;;;;;;5025970;28;20038;-68
2023/04/04 00:02:59;;;;;;;3.10;1.90;;;2.70;91.70;;;;;;5027530;28;20091;-68
2023/04/04 00:05:26;;;;;;;6.65;2.40;;;2.70;91.60;;;;;;5024898;28;20038;-69
2023/04/04 00:07:52;;;;;;;3.95;2.00;;;2.70;91.60;;;;;;5018553;28;20073;-69
2023/04/04 00:10:17;;;;;;;4.30;1.88;;;2.70;91.60;;;;;;5025305;28;20489;-68
2023/04/04 00:12:44;;;;;;;5.40;1.85;;;2.60;91.50;;;;;;5019893;28;20457;-69
2023/04/04 00:15:10;;;;;;;6.22;2.45;;;2.70;91.70;;;;;;5020391;28;20101;-68
2023/04/04 00:17:36;;;;;;;5.43;1.85;;;2.70;91.70;;;;;;5028300;28;20119;-68
2023/04/04 00:20:03;;;;;;;5.25;3.05;;;2.60;91.70;;;;;;5052247;28;20112;-68
2023/04/04 00:22:28;;;;;;;3.95;1.90;;;2.60;91.60;;;;;;5020166;28;20041;-68
2023/04/04 00:24:54;;;;;;;5.72;2.38;;;2.70;91.60;;;;;;5034115;28;20040;-68
2023/04/04 00:27:22;;;;;;;4.97;1.90;;;2.70;91.60;;;;;;5016686;28;20389;-68
2023/04/04 00:29:47;;;;;;;4.45;2.20;;;2.70;91.70;;;;;;5022286;28;20021;-68
2023/04/04 00:32:13;;;;;;;5.07;2.38;;;2.60;91.80;;;;;;5020905;28;20036;-69
2023/04/04 00:34:38;;;;;;;5.35;2.25;;;2.60;91.70;;;;;;5030181;28;20034;-69
2023/04/04 00:37:06;;;;;;;6.93;2.55;;;2.60;91.80;;;;;;5029215;28;20034;-69
2023/04/04 00:39:32;;;;;;;6.15;1.98;;;2.60;91.80;;;;;;5019447;28;20032;-69
2023/04/04 00:41:58;;;;;;;5.97;1.90;;;2.60;91.70;;;;;;5031254;28;20117;-69
2023/04/04 00:44:24;;;;;;;6.95;2.90;;;2.60;91.70;;;;;;5032431;28;20097;-68
2023/04/04 00:46:51;;;;;;;3.65;2.15;;;2.60;91.80;;;;;;5014458;28;20049;-69
2023/04/04 00:49:17;;;;;;;2.88;1.85;;;2.60;91.80;;;;;;5025062;28;20105;-69
2023/04/04 00:51:42;;;;;;;3.53;1.83;;;2.60;91.80;;;;;;5037487;28;20112;-69
2023/04/04 00:54:08;;;;;;;6.85;2.53;;;2.60;91.80;;;;;;5028808;28;20048;-69
2023/04/04 00:56:38;;;;;;;6.10;2.30;;;2.60;91.90;;;;;;5030194;28;20056;-69
2023/04/04 00:59:04;;;;;;;5.45;2.65;;;2.60;91.90;;;;;;5021107;28;20476;-69
2023/04/04 01:01:31;;;;;;;3.22;1.83;;;2.60;91.90;;;;;;5021752;28;20048;-69
2023/04/04 01:03:57;;;;;;;5.72;2.40;;;2.60;91.90;;;;;;5026315;28;20086;-69
2023/04/04 01:06:23;;;;;;;5.38;2.63;;;2.60;91.90;;;;;;5049511;28;20029;-69
2023/04/04 01:08:51;;;;;;;7.75;2.38;;;2.70;91.90;;;;;;5036993;28;20111;-69
2023/04/04 01:11:17;;;;;;;5.40;2.65;;;2.60;91.90;;;;;;5029832;28;20021;-70
2023/04/04 01:13:43;;;;;;;4.05;2.42;;;2.60;91.90;;;;;;5031567;28;20103;-69
2023/04/04 01:16:09;;;;;;;4.45;2.45;;;2.60;92.10;;;;;;5022198;28;20030;-69
2023/04/04 01:18:37;;;;;;;5.55;2.58;;;2.70;91.90;;;;;;5024640;28;20113;-69
2023/04/04 01:21:09;;;;;;;5.38;2.65;;;2.70;92.00;;;;;;5014203;28;20034;-69
2023/04/04 01:23:50;;;;;;;4.55;2.60;;;2.60;92.00;;;;;;5021909;28;20074;-69
2023/04/04 01:26:16;;;;;;;4.55;2.10;;;2.60;92.00;;;;;;5030949;28;20029;-69
2023/04/04 01:28:41;;;;;;;4.30;2.80;;;2.60;92.00;;;;;;5023059;28;20068;-69
2023/04/04 01:31:11;;;;;;;5.22;2.33;;;2.60;92.00;;;;;;5030065;28;20068;-70
2023/04/04 01:33:44;;;;;;;4.07;2.05;;;2.60;92.00;;;;;;5022493;28;20032;-70
2023/04/04 01:36:09;;;;;;;4.95;2.20;;;2.50;92.10;;;;;;5031898;28;20056;-70
2023/04/04 01:39:02;;;;;;;4.22;2.00;;;2.50;92.00;;;;;;5036773;28;20037;-70
2023/04/04 01:41:33;;;;;;;5.28;2.13;;;2.50;92.10;;;;;;5017629;28;20375;-69
2023/04/04 01:44:00;;;;;;;3.88;1.80;;;2.50;92.10;;;;;;5017889;28;20064;-69
2023/04/04 01:46:26;;;;;;;4.72;2.28;;;2.50;92.10;;;;;;5042989;28;20068;-68
2023/04/04 01:48:55;;;;;;;4.50;2.22;;;2.50;92.10;;;;;;5022511;28;20444;-68
2023/04/04 01:51:22;;;;;;;8.82;2.92;;;2.50;92.10;;;;;;5014393;28;20095;-68
2023/04/04 01:53:48;;;;;;;6.97;2.90;;;2.50;92.20;;;;;;5013947;28;20044;-68
2023/04/04 01:56:13;;;;;;;4.72;2.50;;;2.50;92.20;;;;;;5043221;28;20029;-70
2023/04/04 01:58:39;;;;;;;6.13;2.30;;;2.50;92.20;;;;;;5030984;28;20358;-70
2023/04/04 02:01:06;;;;;;;7.88;2.67;;;2.50;92.20;;;;;;5045238;28;20049;-70
2023/04/04 02:03:32;;;;;;;6.85;2.70;;;2.50;92.40;;;;;;5028518;28;20481;-69
2023/04/04 02:05:57;;;;;;;6.35;1.92;;;2.50;92.20;;;;;;5029401;28;20054;-69
2023/04/04 02:08:23;;;;;;;8.73;3.78;;;2.40;92.20;;;;;;5025944;28;20460;-69
2023/04/04 02:10:48;;;;;;;5.78;2.80;;;2.40;92.20;;;;;;5031070;28;20033;-69
2023/04/04 02:13:15;;;;;;;11.48;4.13;;;2.50;92.30;;;;;;5017661;28;20050;-68
2023/04/04 02:15:41;;;;;;;5.55;3.08;;;2.50;92.30;;;;;;5041141;28;20406;-68
2023/04/04 02:18:07;;;;;;;5.05;2.95;;;2.40;92.30;;;;;;5028006;28;20041;-69
2023/04/04 02:20:32;;;;;;;4.03;2.17;;;2.40;92.30;;;;;;5012537;28;20048;-68
2023/04/04 02:22:59;;;;;;;6.38;2.80;;;2.40;92.40;;;;;;5014114;28;20398;-68
2023/04/04 02:25:24;;;;;;;3.25;2.10;;;2.40;92.40;;;;;;5025377;28;20029;-68
2023/04/04 02:27:50;;;;;;;5.32;2.22;;;2.40;92.40;;;;;;5040064;28;20038;-68
2023/04/04 02:30:16;;;;;;;4.65;2.45;;;2.40;92.40;;;;;;5037983;28;20041;-68
2023/04/04 02:32:42;;;;;;;5.32;2.40;;;2.40;92.40;;;;;;5033642;28;20105;-69
2023/04/04 02:35:07;;;;;;;4.45;2.15;;;2.40;92.40;;;;;;5032520;28;20112;-68
2023/04/04 02:37:33;;;;;;;8.65;2.53;;;2.30;92.40;;;;;;5021984;28;20051;-68
2023/04/04 02:39:58;;;;;;;5.43;3.00;;;2.30;92.50;;;;;;5028213;28;20036;-68
2023/04/04 02:42:24;;;;;;;8.50;2.85;;;2.40;92.50;;;;;;5013238;28;20026;-69
2023/04/04 02:44:50;;;;;;;5.75;2.92;;;2.40;92.50;;;;;;5037177;28;20116;-69
2023/04/04 02:47:15;;;;;;;6.85;3.00;;;2.30;92.50;;;;;;5050522;28;20032;-69
2023/04/04 02:49:41;;;;;;;5.05;2.42;;;2.30;92.50;;;;;;5017657;28;20065;-69
2023/04/04 02:52:07;;;;;;;6.07;2.45;;;2.30;92.50;;;;;;5023612;28;20025;-69
2023/04/04 02:54:33;;;;;;;7.15;2.65;;;2.40;92.60;;;;;;5025201;28;20477;-69
2023/04/04 02:56:58;;;;;;;8.63;3.30;;;2.30;92.60;;;;;;5031349;28;20042;-68
2023/04/04 02:59:24;;;;;;;6.90;2.97;;;2.40;92.70;;;;;;5031763;28;20071;-68
2023/04/04 03:01:50;;;;;;;6.35;2.85;;;2.30;92.70;;;;;;5037264;28;20481;-69
2023/04/04 03:04:18;;;;;;;4.60;2.50;;;2.30;92.70;;;;;;5029407;28;20133;-68
2023/04/04 03:06:44;;;;;;;7.00;2.58;;;2.30;92.70;;;;;;5011902;28;20029;-66
2023/04/04 03:09:10;;;;;;;9.00;3.38;;;2.30;92.80;;;;;;5020687;28;20033;-67
2023/04/04 03:11:35;;;;;;;13.23;3.17;;;2.30;92.80;;;;;;5031212;28;20037;-68
2023/04/04 03:14:01;;;;;;;9.10;3.22;;;2.30;92.80;;;;;;5036698;28;20139;-67
2023/04/04 03:16:28;;;;;;;6.55;3.30;;;2.20;92.80;;;;;;5018704;28;20030;-67
2023/04/04 03:18:54;;;;;;;9.43;3.42;;;2.30;92.90;;;;;;5012425;28;20116;-67
2023/04/04 03:21:20;;;;;;;6.25;3.40;;;2.20;92.90;;;;;;5015268;28;20037;-67
2023/04/04 03:23:46;;;;;;;8.63;3.33;;;2.10;92.90;;;;;;5026186;28;20484;-68
2023/04/04 03:26:11;;;;;;;8.80;2.97;;;2.10;93.00;;;;;;5025100;28;20033;-68
2023/04/04 03:28:37;;;;;;;7.00;3.47;;;2.10;93.00;;;;;;5021334;28;20041;-69
2023/04/04 03:31:05;;;;;;;6.38;2.85;;;2.10;93.00;;;;;;5020913;28;20026;-68
2023/04/04 03:33:31;;;;;;;8.00;3.30;;;2.10;93.00;;;;;;5026110;28;20029;-69
2023/04/04 03:35:58;;;;;;;7.55;3.05;;;2.10;93.10;;;;;;5040393;28;20105;-68
2023/04/04 03:38:24;;;;;;;7.82;3.28;;;2.00;93.10;;;;;;5029235;28;20463;-69
2023/04/04 03:40:59;;;;;;;9.23;2.78;;;2.00;93.10;;;;;;5024698;28;20029;-69
2023/04/04 03:43:25;;;;;;;7.28;2.97;;;2.00;93.10;;;;;;5030347;28;20384;-69
2023/04/04 03:45:51;;;;;;;8.00;3.47;;;2.00;93.10;;;;;;5025637;28;20080;-69
2023/04/04 03:48:16;;;;;;;4.05;3.00;;;2.00;93.10;;;;;;5012158;28;20042;-69
2023/04/04 03:50:42;;;;;;;9.48;2.65;;;1.90;93.20;;;;;;5017053;28;20026;-70
2023/04/04 03:53:08;;;;;;;5.97;2.30;;;1.90;93.20;;;;;;5019749;28;20495;-69
2023/04/04 03:55:33;;;;;;;6.95;2.92;;;1.90;93.30;;;;;;5041398;28;20026;-69
2023/04/04 03:57:59;;;;;;;6.80;3.20;;;1.90;93.30;;;;;;5027558;28;20120;-69
2023/04/04 04:00:25;;;;;;;6.70;2.90;;;1.80;93.30;;;;;;5044565;28;20060;-69
2023/04/04 04:02:50;;;;;;;9.20;2.97;;;1.90;93.30;;;;;;5028816;28;20025;-70
2023/04/04 04:05:16;;;;;;;5.50;2.78;;;1.90;93.30;;;;;;5046622;28;20047;-69
2023/04/04 04:07:45;;;;;;;8.60;3.28;;;1.80;93.30;;;;;;5021667;28;20053;-69
2023/04/04 04:10:12;;;;;;;4.75;2.95;;;1.80;93.40;;;;;;5018983;28;20041;-70
2023/04/04 04:12:38;;;;;;;4.63;2.53;;;1.80;93.40;;;;;;5033063;28;20036;-69
2023/04/04 04:15:05;;;;;;;6.18;2.55;;;1.80;93.40;;;;;;5013341;28;20525;-69
2023/04/04 04:17:31;;;;;;;7.00;2.80;;;1.80;93.50;;;;;;5032677;28;20030;-69
2023/04/04 04:19:56;;;;;;;6.18;2.47;;;1.80;93.50;;;;;;5016416;28;20492;-69
2023/04/04 04:22:22;;;;;;;6.15;2.60;;;1.80;93.50;;;;;;5014447;28;20026;-69
2023/04/04 04:24:47;;;;;;;6.60;2.80;;;1.80;93.50;;;;;;5015558;28;20030;-69
2023/04/04 04:27:13;;;;;;;4.55;2.60;;;1.80;93.50;;;;;;5031142;28;20029;-69
2023/04/04 04:29:39;;;;;;;11.70;3.20;;;1.80;93.60;;;;;;5021332;28;20036;-70
2023/04/04 04:32:05;;;;;;;6.43;2.50;;;1.80;93.60;;;;;;5050645;28;20021;-70
2023/04/04 04:34:31;;;;;;;5.85;2.83;;;1.80;93.60;;;;;;5040022;28;20034;-69
2023/04/04 04:36:56;;;;;;;4.72;2.80;;;1.80;93.60;;;;;;5028110;28;20030;-71
2023/04/04 04:39:22;;;;;;;5.80;2.40;;;1.70;93.60;;;;;;5038187;28;20108;-70
2023/04/04 04:41:48;;;;;;;6.70;2.88;;;1.80;93.60;;;;;;5033033;28;20029;-70
2023/04/04 04:44:13;;;;;;;5.30;2.67;;;1.80;93.60;;;;;;5023353;28;20056;-71
2023/04/04 04:46:40;;;;;;;4.97;2.30;;;1.80;93.60;;;;;;5037265;28;20040;-70
2023/04/04 04:49:06;;;;;;;4.93;2.67;;;1.70;93.70;;;;;;5021947;28;20041;-70
2023/04/04 04:51:32;;;;;;;6.40;3.22;;;1.80;93.70;;;;;;5032989;28;20040;-70
2023/04/04 04:53:59;;;;;;;5.60;2.53;;;1.70;93.70;;;;;;5025857;28;20069;-69
2023/04/04 04:56:25;;;;;;;6.13;2.58;;;1.80;93.80;;;;;;5022844;28;20531;-69
2023/04/04 04:58:50;;;;;;;5.57;2.90;;;1.70;93.80;;;;;;5018013;28;20029;-69
2023/04/04 05:01:26;;;;;;;10.40;2.53;;;1.70;93.80;;;;;;5021509;28;20425;-69
2023/04/04 05:03:51;;;;;;;8.50;3.08;;;1.70;93.80;;;;;;5016340;28;20038;-69
2023/04/04 05:06:17;;;;;;;6.45;2.97;;;1.70;93.80;;;;;;5034224;28;20029;-69
2023/04/04 05:08:43;;;;;;;7.72;3.50;;;1.70;93.80;;;;;;5023451;28;20120;-69
2023/04/04 05:11:08;;;;;;;6.15;3.35;;;1.80;93.90;;;;;;5031329;28;20484;-69
2023/04/04 05:13:34;;;;;;;7.28;3.33;;;1.80;93.90;;;;;;5032383;28;20112;-66
2023/04/04 05:16:00;;;;;;;6.90;2.60;;;1.80;93.90;;;;;;5024111;28;20026;-68
2023/04/04 05:18:26;;;;;;;6.78;3.20;;;1.80;93.90;;;;;;5032646;28;20469;-68
2023/04/04 05:20:53;;;;;;;8.10;3.17;;;1.80;93.90;;;;;;5044120;28;20042;-66
2023/04/04 05:23:23;;;;;;;4.85;2.53;;;1.80;94.00;;;;;;5029252;28;20445;-66
2023/04/04 05:25:50;;;;;;;5.20;2.55;;;1.80;94.00;;;;;;5020437;28;20029;-67
2023/04/04 05:28:16;;;;;;;6.80;2.92;;;1.80;94.00;;;;;;5031971;28;20060;-68
2023/04/04 05:30:42;;;;;;;8.80;3.22;;;1.80;94.10;;;;;;5022412;28;20091;-68
2023/04/04 05:33:07;;;;;;;6.30;2.92;;;1.80;94.10;;;;;;5027254;28;20476;-68
2023/04/04 05:35:33;;;;;;;5.30;2.88;;;1.90;94.10;;;;;;5026516;28;20029;-68
2023/04/04 05:37:58;;;;;;;6.15;3.22;;;1.90;94.10;;;;;;5021774;28;20040;-69
2023/04/04 05:40:24;;;;;;;11.55;3.78;;;1.90;94.10;;;;;;5025187;28;20071;-68
2023/04/04 05:42:56;;;;;;;8.95;3.47;;;2.00;94.10;;;;;;5036675;28;20029;-69
2023/04/04 05:45:22;;;;;;;5.90;3.20;;;2.00;94.20;;;;;;5033817;28;20036;-69
2023/04/04 05:47:48;;;;;;;8.02;3.83;;;2.10;94.40;;;;;;5028440;28;20033;-69
2023/04/04 05:50:13;;;;;;;9.93;4.75;;;2.10;94.20;;;;;;5021836;28;20021;-68
2023/04/04 05:52:39;;;;;;;6.18;3.30;;;2.20;94.20;;;;;;5018242;28;20034;-68
2023/04/04 05:55:05;;;;;;;7.07;3.83;;;2.30;94.20;;;;;;5026848;28;20044;-68
2023/04/04 05:57:47;;;;;;;7.40;3.30;;;2.30;94.20;;;;;;5019083;28;20450;-69
2023/04/04 06:00:14;;;;;;;5.38;2.50;;;2.30;94.10;;;;;;5019075;28;20057;-68
2023/04/04 06:02:40;;;;;;;6.20;3.03;;;2.30;94.10;;;;;;5019973;28;20512;-68
2023/04/04 06:05:07;;;;;;;5.88;3.20;;;2.40;94.00;;;;;;5033615;28;20066;-68
2023/04/04 06:07:32;;;;;;;5.30;2.53;;;2.40;94.00;;;;;;5041553;28;20036;-69
2023/04/04 06:09:58;;;;;;;7.43;3.33;;;2.50;93.90;;;;;;5029678;28;20052;-69
2023/04/04 06:12:26;;;;;;;6.72;3.10;;;2.50;93.90;;;;;;5021164;28;20585;-69
2023/04/04 06:14:52;;;;;;;7.35;3.63;;;2.50;93.90;;;;;;5022485;28;20057;-68
2023/04/04 06:17:18;;;;;;;5.82;3.20;;;2.50;93.90;;;;;;5034006;28;20052;-69
2023/04/04 06:19:43;;;;;;;5.90;3.13;;;2.50;93.90;;;;;;5030202;28;20029;-69
2023/04/04 06:22:09;;;;;;;4.93;2.20;;;2.60;93.90;;;;;;5034150;28;20030;-69
2023/04/04 06:24:35;;;;;;;6.85;3.42;;;2.60;93.90;;;;;;5017599;28;20030;-69
2023/04/04 06:27:01;;;;;;;7.53;3.53;;;2.70;93.80;;;;;;5048653;28;20507;-69
2023/04/04 06:29:27;;;;;;;6.40;3.47;;;2.70;93.90;;;;;;5022317;28;20026;-69
2023/04/04 06:31:53;;;;;;;9.23;3.67;;;2.90;94.30;;;;;;5028338;28;20045;-69
2023/04/04 06:34:20;;;;;;;6.22;3.35;;;2.90;94.20;;;;;;5022630;28;20554;-66
2023/04/04 06:36:46;;;;;;;12.45;3.55;;;3.00;94.10;;;;;;5027487;28;20535;-67
2023/04/04 06:39:11;;;;;;;8.52;4.55;;;3.10;93.90;;;;;;5017171;28;20693;-66
2023/04/04 06:41:37;;;;;;;5.90;3.40;;;3.10;93.90;;;;;;5017363;28;20099;-68
2023/04/04 06:44:02;;;;;;;7.93;3.40;;;3.10;93.80;;;;;;5032006;28;20040;-68
2023/04/04 06:46:30;;;;;;;7.43;3.55;;;3.20;93.70;;;;;;5039314;28;20033;-67
2023/04/04 06:48:56;;;;;;;7.63;3.10;;;3.20;93.60;;;;;;5028352;28;20041;-68
2023/04/04 06:51:22;;;;;;;10.25;3.05;;;3.30;93.50;;;;;;5035965;28;20395;-66
2023/04/04 06:53:48;;;;;;;8.90;3.17;;;3.30;93.50;;;;;;5026278;28;20033;-66
2023/04/04 06:56:14;;;;;;;5.97;2.83;;;3.30;93.50;;;;;;5014775;28;20088;-66
2023/04/04 06:58:40;;;;;;;4.85;3.40;;;3.40;93.40;;;;;;5025192;28;20033;-66
2023/04/04 07:01:05;;;;;;;4.60;2.67;;;3.40;93.30;;;;;;5025442;28;20053;-66
2023/04/04 07:03:31;;;;;;;4.32;2.22;;;3.40;93.40;;;;;;5025770;28;20037;-66
2023/04/04 07:05:57;;;;;;;5.47;2.90;;;3.50;93.20;;;;;;5025442;28;20026;-66
2023/04/04 07:08:24;;;;;;;6.38;2.50;;;3.50;93.10;;;;;;5035914;28;20073;-66
2023/04/04 07:10:50;;;;;;;5.75;2.45;;;3.50;93.00;;;;;;5024475;28;20500;-67
2023/04/04 07:13:16;;;;;;;4.65;2.45;;;3.60;92.90;;;;;;5014056;28;20034;-66
2023/04/04 07:15:47;;;;;;;6.28;2.50;;;3.60;92.90;;;;;;5020594;28;20113;-67
2023/04/04 07:18:13;;;;;;;5.07;2.95;;;3.60;92.80;;;;;;5013332;28;20053;-66
2023/04/04 07:20:38;;;;;;;7.22;2.28;;;3.70;92.80;;;;;;5030289;28;20029;-67
2023/04/04 07:23:04;;;;;;;6.55;2.60;;;3.70;92.80;;;;;;5031567;28;20042;-66
2023/04/04 07:25:30;;;;;;;8.60;3.00;;;3.70;92.70;;;;;;5025787;28;20072;-66
2023/04/04 07:27:55;;;;;;;4.82;2.40;;;3.80;92.70;;;;;;5039940;28;20045;-67
2023/04/04 07:30:25;;;;;;;6.22;2.17;;;3.80;92.60;;;;;;5021091;28;20052;-66
2023/04/04 07:33:01;;;;;;;5.75;2.25;;;3.80;92.40;;;;;;5016996;28;20041;-66
2023/04/04 07:35:27;;;;;;;6.88;2.80;;;3.80;92.40;;;;;;5021027;28;20068;-67
2023/04/04 07:37:53;;;;;;;10.20;3.35;;;3.80;92.40;;;;;;5016089;28;20440;-67
2023/04/04 07:40:19;;;;;;;7.55;2.35;;;3.80;92.30;;;;;;5015581;28;20036;-67
2023/04/04 07:42:46;;;;;;;5.28;2.75;;;3.80;92.00;;;;;;5029648;28;20033;-67
2023/04/04 07:45:13;;;;;;;9.90;2.67;;;3.70;92.00;;;;;;5022162;28;20453;-67
2023/04/04 07:47:45;;;;;;;6.63;2.35;;;3.70;92.10;;;;;;5014171;28;20059;-68
2023/04/04 07:50:14;;;;;;;5.38;2.25;;;3.80;92.50;;;;;;5020141;28;20045;-68
2023/04/04 07:52:41;;;;;;;6.20;1.80;;;3.90;92.20;;;;;;5025957;28;20449;-69
2023/04/04 07:55:08;;;;;;;3.50;1.83;;;3.90;92.20;;;;;;5017931;28;20044;-69
2023/04/04 07:57:38;;;;;;;6.20;2.17;;;4.00;92.20;;;;;;5025008;28;20389;-70
2023/04/04 08:00:08;;;;;;;5.63;2.13;;;4.00;91.80;;;;;;5037946;28;20037;-69
2023/04/04 08:02:36;;;;;;;6.13;2.03;;;4.00;91.80;;;;;;5030924;28;20412;-72
2023/04/04 08:05:02;;;;;;;5.60;1.70;;;4.00;91.90;;;;;;5027968;28;20033;-69
2023/04/04 08:07:27;;;;;;;3.15;1.88;;;4.10;91.90;;;;;;5038367;28;20071;-70
2023/04/04 08:09:53;;;;;;;3.33;1.83;;;4.00;91.60;;;;;;5045023;28;20075;-70
2023/04/04 08:12:18;;;;;;;4.63;1.70;;;4.00;91.40;;;;;;5026996;28;20041;-70
2023/04/04 08:14:44;;;;;;;7.10;2.13;;;4.10;91.70;;;;;;5026661;28;20623;-69
2023/04/04 08:17:11;;;;;;;3.90;1.98;;;4.10;91.60;;;;;;5032270;28;20124;-71
2023/04/04 08:19:37;;;;;;;7.75;2.65;;;4.20;91.60;;;;;;5037007;28;20034;-70
2023/04/04 08:22:03;;;;;;;4.05;1.70;;;4.20;91.60;;;;;;5016985;28;20037;-70
2023/04/04 08:24:28;;;;;;;4.85;2.30;;;4.30;91.70;;;;;;5032554;28;20025;-73
2023/04/04 08:26:54;;;;;;;4.32;2.30;;;4.50;91.50;;;;;;5031368;28;20029;-74
2023/04/04 08:29:20;;;;;;;10.52;2.80;;;4.50;91.30;;;;;;5024563;28;20083;-73
2023/04/04 08:31:45;;;;;;;5.43;1.77;;;4.60;90.70;;;;;;5022981;28;20029;-74
2023/04/04 08:34:12;;;;;;;4.53;1.88;;;4.60;91.00;;;;;;5025723;28;20034;-73
2023/04/04 08:36:38;;;;;;;5.38;2.78;;;4.70;91.00;;;;;;5042610;28;20380;-73
2023/04/04 08:39:03;;;;;;;3.83;2.00;;;4.80;91.00;;;;;;5032615;28;20029;-74
2023/04/04 08:41:31;;;;;;;8.95;2.30;;;4.80;90.90;;;;;;5023826;28;20061;-75
2023/04/04 08:44:03;;;;;;;5.38;1.58;;;4.90;90.80;;;;;;5042878;28;20025;-74
2023/04/04 08:46:29;;;;;;;4.78;2.10;;;5.00;90.70;;;;;;5043017;28;20021;-75
2023/04/04 08:48:55;;;;;;;3.53;1.70;;;5.00;90.60;;;;;;5034732;28;20052;-74
2023/04/04 08:51:25;;;;;;;4.60;2.40;;;5.00;90.40;;;;;;5020548;28;20045;-75
2023/04/04 08:53:51;;;;;;;4.82;2.03;;;5.00;90.20;;;;;;5024820;28;20083;-75
2023/04/04 08:56:16;;;;;;;7.65;2.30;;;5.20;89.40;;;;;;5020274;28;20116;-76
2023/04/04 08:58:43;;;;;;;5.95;2.00;;;5.10;88.80;;;;;;5036334;28;20382;-75
2023/04/04 09:01:09;;;;;;;9.95;2.92;;;5.10;87.40;;;;;;5023098;28;20092;-74
2023/04/04 09:03:36;;;;;;;4.57;1.98;;;5.20;88.50;;;;;;5014032;28;20033;-75
2023/04/04 09:06:03;;;;;;;4.60;2.20;;;5.20;88.20;;;;;;5023904;28;20034;-74
2023/04/04 09:08:30;;;;;;;4.82;2.58;;;5.20;88.60;;;;;;5013547;28;20099;-75
2023/04/04 09:10:56;;;;;;;4.07;2.22;;;5.30;88.70;;;;;;5021947;28;20868;-75
2023/04/04 09:13:22;;;;;;;6.05;2.10;;;5.30;88.60;;;;;;5030606;28;20044;-74
2023/04/04 09:15:53;;;;;;;4.68;1.92;;;5.40;88.70;;;;;;5025635;28;20489;-74
2023/04/04 09:18:19;;;;;;;5.40;2.10;;;5.50;88.80;;;;;;5021477;28;20026;-74
2023/04/04 09:20:46;;;;;;;6.32;2.22;;;5.60;87.70;;;;;;5031824;28;20477;-75
2023/04/04 09:23:18;;;;;;;2.97;1.67;;;5.70;87.40;;;;;;5028564;28;20401;-75
2023/04/04 09:25:50;;;;;;;3.67;2.03;;;5.60;86.30;;;;;;5032197;28;20397;-75
2023/04/04 09:28:16;;;;;;;2.85;1.80;;;5.60;85.80;;;;;;5029051;28;20513;-75
2023/04/04 09:30:43;;;;;;;3.85;2.17;;;5.60;84.90;;;;;;5039271;28;20052;-75
2023/04/04 09:33:11;;;;;;;3.85;1.83;;;5.70;86.00;;;;;;5038841;28;20126;-75
2023/04/04 09:35:40;;;;;;;5.50;1.95;;;5.80;84.60;;;;;;5019597;28;20117;-76
2023/04/04 09:38:06;;;;;;;4.05;2.20;;;5.90;85.30;;;;;;5025988;28;20109;-75
2023/04/04 09:40:34;;;;;;;3.83;1.70;;;6.00;84.60;;;;;;5027169;28;20112;-72
2023/04/04 09:43:02;;;;;;;4.15;2.00;;;6.00;84.00;;;;;;5018896;28;20117;-73
2023/04/04 09:45:33;;;;;;;5.45;2.28;;;6.20;84.60;;;;;;5030180;28;20603;-72
2023/04/04 09:47:59;;;;;;;2.70;1.73;;;6.30;84.50;;;;;;5015402;28;20398;-73
2023/04/04 09:50:27;;;;;;;4.50;2.15;;;6.40;83.80;;;;;;5032018;28;20028;-75
2023/04/04 09:52:57;;;;;;;3.63;2.22;;;6.40;82.90;;;;;;5013443;28;20108;-74
2023/04/04 09:55:37;;;;;;;3.92;1.83;;;6.40;82.70;;;;;;5026536;28;20037;-75
2023/04/04 09:58:12;;;;;;;3.00;1.65;;;6.50;82.00;;;;;;5041521;28;20512;-74
2023/04/04 10:00:46;;;;;;;3.28;1.70;;;6.60;82.70;;;;;;5021370;28;20057;-73
2023/04/04 10:03:16;;;;;;;3.33;1.80;;;6.70;82.90;;;;;;5025142;28;20104;-74
2023/04/04 10:05:44;;;;;;;4.10;1.90;;;6.80;82.50;;;;;;5019814;28;20045;-73
2023/04/04 10:08:20;;;;;;;2.97;1.42;;;6.80;81.70;;;;;;5025106;28;20045;-73
2023/04/04 10:10:58;;;;;;;2.63;1.60;;;6.80;81.40;;;;;;5036742;28;20025;-73
2023/04/04 10:13:31;;;;;;;4.78;1.80;;;6.90;80.80;;;;;;5022963;28;20485;-73
2023/04/04 10:15:59;;;;;;;4.05;1.92;;;6.90;80.30;;;;;;5029529;28;20026;-73
2023/04/04 10:18:29;;;;;;;3.80;1.80;;;7.00;80.00;;;;;;5028809;28;20033;-73
2023/04/04 10:20:56;;;;;;;3.95;2.15;;;7.00;81.00;;;;;;5033841;28;20033;-73
2023/04/04 10:23:25;;;;;;;5.82;2.17;;;7.10;80.00;;;;;;5028067;28;20025;-73
2023/04/04 10:25:52;;;;;;;3.47;1.77;;;7.20;79.30;;;;;;5027421;28;20026;-73
2023/04/04 10:28:19;;;;;;;4.50;1.77;;;7.20;79.60;;;;;;5019135;28;20045;-73
2023/04/04 10:31:24;;;;;;;4.25;1.40;;;7.30;79.70;;;;;;5030795;28;20581;-72
2023/04/04 10:34:06;;;;;;;3.63;1.83;;;7.50;79.30;;;;;;5014983;28;20042;-72
2023/04/04 10:36:40;;;;;;;2.67;1.45;;;7.60;78.90;;;;;;5027963;28;20041;-71
2023/04/04 10:39:13;;;;;;;2.45;1.60;;;7.70;77.80;;;;;;5014116;28;20259;-72
2023/04/04 10:41:40;;;;;;;4.78;1.50;;;7.80;77.50;;;;;;5036144;28;20032;-73
2023/04/04 10:44:19;;;;;;;2.70;1.50;;;7.90;75.20;;;;;;5046619;28;20025;-72
2023/04/04 10:46:50;;;;;;;3.28;1.60;;;8.00;75.70;;;;;;5025601;28;20041;-73
2023/04/04 10:49:16;;;;;;;3.63;1.80;;;7.90;74.70;;;;;;5029692;28;20030;-73
2023/04/04 10:51:42;;;;;;;3.45;1.75;;;7.80;72.60;;;;;;5027899;28;20025;-72
2023/04/04 10:54:09;;;;;;;2.90;1.60;;;7.80;73.20;;;;;;5016444;28;20590;-73
2023/04/04 10:56:35;;;;;;;3.45;1.80;;;7.80;72.90;;;;;;5041342;28;20029;-73
2023/04/04 10:59:15;;;;;;;3.67;1.35;;;7.80;73.00;;;;;;5024622;28;20040;-73
2023/04/04 11:02:07;;;;;;;2.80;1.33;;;7.80;71.70;;;;;;5030060;28;20034;-74
2023/04/04 11:04:36;;;;;;;3.03;1.30;;;7.70;70.10;;;;;;5011971;28;20072;-74
2023/04/04 11:07:17;;;;;;;4.07;1.90;;;7.70;72.10;;;;;;5036267;28;20132;-72
2023/04/04 11:09:59;;;;;;;3.03;1.50;;;7.80;72.10;;;;;;5027935;28;20079;-74
2023/04/04 11:12:30;;;;;;;3.75;1.80;;;7.90;71.20;;;;;;5011149;28;20029;-73
2023/04/04 11:15:08;;;;;;;2.92;1.40;;;7.90;70.80;;;;;;5016914;28;20116;-74
2023/04/04 11:17:56;;;;;;;2.70;1.48;;;7.90;70.30;;;;;;5026980;28;20032;-75
2023/04/04 11:20:27;;;;;;;2.92;1.48;;;7.90;69.70;;;;;;5028575;28;20346;-75
2023/04/04 11:23:09;;;;;;;3.38;1.48;;;8.00;70.20;;;;;;5023481;28;20033;-74
2023/04/04 11:25:39;;;;;;;2.92;1.52;;;8.10;70.60;;;;;;5043808;28;20025;-76
2023/04/04 11:28:23;;;;;;;3.95;1.80;;;8.10;70.20;;;;;;5015887;28;20049;-75
2023/04/04 11:31:31;;;;;;;2.15;1.63;;;8.20;68.80;;;;;;5034612;28;20061;-75
2023/04/04 11:34:04;;;;;;;6.50;1.73;;;8.20;69.00;;;;;;5031740;28;20033;-75
2023/04/04 11:36:35;;;;;;;3.72;1.67;;;8.20;68.50;;;;;;5029658;28;20031;-75
2023/04/04 11:39:13;;;;;;;1.77;1.08;;;8.20;67.30;;;;;;5033444;28;20029;-75
2023/04/04 11:42:09;;;;;;;3.40;1.45;;;8.10;68.30;;;;;;5023260;28;20028;-75
2023/04/04 11:44:53;;;;;;;4.95;1.80;;;8.20;67.80;;;;;;5018953;28;20053;-71
2023/04/04 11:47:21;;;;;;;5.00;1.98;;;8.10;66.60;;;;;;5025337;28;20359;-73
2023/04/04 11:49:48;;;;;;;2.35;1.55;;;8.10;67.80;;;;;;5029459;28;20069;-75
2023/04/04 11:52:18;;;;;;;3.05;1.45;;;8.10;67.10;;;;;;5046451;28;20064;-74
2023/04/04 11:54:46;;;;;;;3.30;1.30;;;8.10;67.00;;;;;;5029229;28;20033;-74
2023/04/04 11:57:21;;;;;;;3.65;1.40;;;8.20;67.20;;;;;;5033716;28;20077;-75
2023/04/04 11:59:47;;;;;;;;;;;8.20;66.30;;;;;;5030107;28;20050;-76
2023/04/04 12:02:15;;;;;;;3.42;1.65;;;8.20;67.70;;;;;;5040713;28;19909;-76
2023/04/04 12:04:44;;;;;;;3.70;1.33;;;8.30;67.10;;;;;;5015689;28;20029;-76
2023/04/04 12:07:11;;;;;;;4.07;1.73;;;8.30;65.90;;;;;;5051182;28;20090;-76
2023/04/04 12:09:38;;;;;;;2.00;1.35;;;8.30;66.50;;;;;;5032959;28;20048;-76
2023/04/04 12:12:04;;;;;;;3.25;1.40;;;8.40;66.30;;;;;;5038306;28;20032;-75
2023/04/04 12:14:32;;;;;;;2.35;1.40;;;8.40;64.80;;;;;;5033962;28;20025;-75
2023/04/04 12:16:58;;;;;;;2.83;1.35;;;8.40;65.70;;;;;;5034520;28;20119;-73
2023/04/04 12:19:25;;;;;;;2.13;1.33;;;8.50;66.10;;;;;;5022908;28;20034;-77
2023/04/04 12:21:52;;;;;;;3.10;1.02;;;8.60;66.50;;;;;;5033780;28;20025;-76
2023/04/04 12:24:18;;;;;;;3.60;1.73;;;8.70;66.50;;;;;;5026992;28;20497;-77
2023/04/04 12:26:50;;;;;;;2.58;1.35;;;8.90;66.60;;;;;;5015013;28;20037;-77
2023/04/04 12:29:17;;;;;;;2.50;1.30;;;9.00;66.50;;;;;;5019189;28;20041;-77
2023/04/04 12:31:45;;;;;;;2.42;1.10;;;9.00;66.00;;;;;;5020361;28;20379;-77
2023/04/04 12:34:22;;;;;;;4.07;1.20;;;9.00;65.00;;;;;;5017670;28;20038;-77
2023/04/04 12:36:51;;;;;;;1.38;0.93;;;8.90;65.20;;;;;;5016744;28;20032;-76
2023/04/04 12:39:19;;;;;;;1.80;1.27;;;8.90;65.00;;;;;;5015280;28;20048;-74
2023/04/04 12:41:51;;;;;;;3.70;1.33;;;8.90;64.70;;;;;;5022045;28;20033;-74
2023/04/04 12:44:32;;;;;;;4.43;1.88;;;8.90;63.00;;;;;;5014472;28;20379;-75
2023/04/04 12:46:59;;;;;;;2.38;1.30;;;8.80;62.90;;;;;;5032805;28;20026;-77
2023/04/04 12:49:29;;;;;;;3.47;1.45;;;8.80;63.60;;;;;;5030343;28;20424;-76
2023/04/04 12:51:55;;;;;;;1.77;1.08;;;8.80;63.10;;;;;;5017010;28;20041;-78
2023/04/04 12:54:29;;;;;;;2.85;1.40;;;8.80;63.40;;;;;;5024846;28;20179;-77
2023/04/04 12:56:56;;;;;;;1.77;1.17;;;8.80;63.40;;;;;;5022455;28;20037;-76
2023/04/04 12:59:27;;;;;;;1.88;1.10;;;8.80;63.20;;;;;;5031194;28;20049;-76
2023/04/04 13:01:53;;;;;;;1.88;1.10;;;8.70;63.10;;;;;;5016761;28;20156;-77